Time;durP1;ratioP1;P1;durP2;ratioP2;P2;SDS_P1;SDS_P2;PMS_P1;PMS_P2;Temp;Humidity;BMP_temperature;BMP_pressure;BME280_temperature;BME280_humidity;BME280_pressure;Samples;Min_cycle;Max_cycle;Signal;HPM_P1;HPM_P2
2023/07/20 00:00:53;;;;;;;6.03;4.83;;;;;;;;;;6251578;28;20201;-69
2023/07/20 00:03:57;;;;;;;7.87;5.00;;;;;;;;;;6248205;28;20213;-69
2023/07/20 00:06:59;;;;;;;6.53;4.60;;;;;;;;;;6261809;28;20194;-69
2023/07/20 00:10:00;;;;;;;9.17;5.07;;;;;;;;;;6237989;28;20197;-69
2023/07/20 00:13:01;;;;;;;8.77;5.63;;;;;;;;;;6249009;28;20205;-69
2023/07/20 00:16:02;;;;;;;7.53;5.23;;;;;;;;;;6246636;28;20255;-69
2023/07/20 00:19:04;;;;;;;8.57;4.90;;;;;;;;;;6243143;28;20198;-69
2023/07/20 00:22:05;;;;;;;6.93;5.10;;;;;;;;;;6250238;28;20222;-69
2023/07/20 00:25:07;;;;;;;8.63;6.13;;;;;;;;;;6255957;28;20190;-69
2023/07/20 00:28:08;;;;;;;9.73;5.23;;;;;;;;;;6252795;28;20332;-69
2023/07/20 00:31:09;;;;;;;8.17;5.40;;;;;;;;;;6255395;28;20190;-69
2023/07/20 00:34:10;;;;;;;9.37;5.83;;;;;;;;;;6248796;28;20199;-69
2023/07/20 00:37:11;;;;;;;7.73;5.50;;;;;;;;;;6258354;28;20259;-69
2023/07/20 00:40:12;;;;;;;6.23;5.47;;;;;;;;;;6244160;28;20198;-69
2023/07/20 00:43:13;;;;;;;6.47;5.27;;;;;;;;;;6251569;28;20239;-69
2023/07/20 00:46:14;;;;;;;7.43;5.30;;;;;;;;;;6263488;28;20190;-69
2023/07/20 00:49:16;;;;;;;6.03;5.40;;;;;;;;;;6264920;28;20224;-69
2023/07/20 00:52:19;;;;;;;6.37;5.13;;;;;;;;;;6250939;28;20289;-69
2023/07/20 00:55:20;;;;;;;7.73;5.40;;;;;;;;;;6253523;28;20194;-69
2023/07/20 00:58:21;;;;;;;6.80;5.70;;;;;;;;;;6261927;28;20212;-69
2023/07/20 01:01:23;;;;;;;6.97;5.37;;;;;;;;;;6248320;28;20239;-69
2023/07/20 01:04:26;;;;;;;8.77;5.43;;;;;;;;;;6256191;28;20217;-69
2023/07/20 01:07:31;;;;;;;7.57;5.20;;;;;;;;;;6246756;28;20179;-69
2023/07/20 01:10:37;;;;;;;5.80;5.00;;;;;;;;;;6263463;28;20228;-69
2023/07/20 01:13:38;;;;;;;6.27;4.93;;;;;;;;;;6257336;28;20190;-69
2023/07/20 01:16:39;;;;;;;9.90;5.30;;;;;;;;;;6252858;28;20228;-69
2023/07/20 01:19:40;;;;;;;7.83;5.37;;;;;;;;;;6238058;28;20200;-69
2023/07/20 01:23:00;;;;;;;8.97;5.17;;;;;;;;;;6245957;28;20229;-69
2023/07/20 01:26:18;;;;;;;7.87;5.07;;;;;;;;;;6252433;28;20190;-69
2023/07/20 01:29:33;;;;;;;7.83;4.77;;;;;;;;;;6261656;28;20309;-69
2023/07/20 01:32:34;;;;;;;5.63;4.80;;;;;;;;;;6250524;28;20260;-69
2023/07/20 01:35:36;;;;;;;10.13;5.13;;;;;;;;;;6269656;28;20189;-69
2023/07/20 01:38:37;;;;;;;5.47;4.40;;;;;;;;;;6259755;28;20217;-69
2023/07/20 01:41:39;;;;;;;5.43;4.27;;;;;;;;;;6251273;28;20190;-68
2023/07/20 01:44:40;;;;;;;7.03;5.03;;;;;;;;;;6264345;28;20182;-69
2023/07/20 01:47:41;;;;;;;7.93;4.80;;;;;;;;;;6256397;28;20227;-69
2023/07/20 01:50:42;;;;;;;6.40;5.00;;;;;;;;;;6253806;28;20201;-68
2023/07/20 01:53:43;;;;;;;4.90;4.37;;;;;;;;;;6257663;28;20185;-69
2023/07/20 01:56:44;;;;;;;6.00;4.77;;;;;;;;;;6236756;28;20197;-68
2023/07/20 01:59:45;;;;;;;6.33;4.53;;;;;;;;;;6245332;28;20209;-68
2023/07/20 02:02:46;;;;;;;5.13;4.27;;;;;;;;;;6245287;28;20209;-68
2023/07/20 02:05:47;;;;;;;6.67;4.23;;;;;;;;;;6276453;28;20212;-68
2023/07/20 02:08:48;;;;;;;5.77;5.00;;;;;;;;;;6234679;28;20199;-68
2023/07/20 02:11:50;;;;;;;6.03;4.40;;;;;;;;;;6250603;28;20224;-69
2023/07/20 02:14:51;;;;;;;7.43;4.80;;;;;;;;;;6236996;28;20194;-69
2023/07/20 02:17:52;;;;;;;6.83;4.83;;;;;;;;;;6243168;28;20190;-69
2023/07/20 02:20:54;;;;;;;5.30;4.33;;;;;;;;;;6274101;28;20196;-69
2023/07/20 02:23:55;;;;;;;6.63;4.60;;;;;;;;;;6250066;28;20226;-69
2023/07/20 02:26:56;;;;;;;5.63;4.70;;;;;;;;;;6259448;28;20212;-68
2023/07/20 02:29:57;;;;;;;5.83;5.00;;;;;;;;;;6257362;28;20249;-69
2023/07/20 02:32:58;;;;;;;5.87;4.53;;;;;;;;;;6248790;28;20197;-69
2023/07/20 02:35:59;;;;;;;5.13;4.47;;;;;;;;;;6260619;28;20318;-69
2023/07/20 02:39:03;;;;;;;5.37;4.27;;;;;;;;;;6247429;28;20277;-69
2023/07/20 02:42:04;;;;;;;6.37;4.47;;;;;;;;;;6254025;28;20218;-69
2023/07/20 02:45:05;;;;;;;4.83;4.37;;;;;;;;;;6261440;28;20312;-69
2023/07/20 02:48:07;;;;;;;7.50;4.33;;;;;;;;;;6256670;28;20239;-69
2023/07/20 02:51:09;;;;;;;4.67;4.27;;;;;;;;;;6253075;28;20214;-69
2023/07/20 02:54:10;;;;;;;6.67;4.20;;;;;;;;;;6264216;28;20323;-69
2023/07/20 02:57:11;;;;;;;6.00;4.17;;;;;;;;;;6242824;28;20221;-69
2023/07/20 03:00:16;;;;;;;4.63;3.90;;;;;;;;;;6279838;28;20226;-69
2023/07/20 03:03:17;;;;;;;7.20;4.47;;;;;;;;;;6259832;28;20267;-68
2023/07/20 03:06:18;;;;;;;5.37;4.10;;;;;;;;;;6248205;28;20240;-69
2023/07/20 03:09:19;;;;;;;7.97;5.17;;;;;;;;;;6253822;28;20192;-69
2023/07/20 03:12:20;;;;;;;5.00;4.50;;;;;;;;;;6249160;28;20335;-69
2023/07/20 03:15:21;;;;;;;7.67;3.87;;;;;;;;;;6246032;28;20194;-69
2023/07/20 03:18:22;;;;;;;4.63;3.53;;;;;;;;;;6252133;28;20198;-69
2023/07/20 03:21:23;;;;;;;5.93;3.90;;;;;;;;;;6251448;28;20252;-68
2023/07/20 03:24:24;;;;;;;5.13;3.50;;;;;;;;;;6254117;28;20217;-69
2023/07/20 03:27:25;;;;;;;3.73;3.40;;;;;;;;;;6250985;28;20270;-69
2023/07/20 03:30:26;;;;;;;3.93;3.63;;;;;;;;;;6263819;28;20197;-68
2023/07/20 03:33:29;;;;;;;5.73;3.80;;;;;;;;;;6236325;28;20203;-68
2023/07/20 03:36:31;;;;;;;5.63;4.30;;;;;;;;;;6236970;28;20198;-69
2023/07/20 03:39:32;;;;;;;4.37;3.83;;;;;;;;;;6271985;28;20198;-69
2023/07/20 03:42:33;;;;;;;7.17;4.33;;;;;;;;;;6241264;28;20214;-69
2023/07/20 03:45:34;;;;;;;4.27;3.87;;;;;;;;;;6257558;28;20285;-69
2023/07/20 03:48:35;;;;;;;7.57;4.40;;;;;;;;;;6258201;28;20190;-69
2023/07/20 03:51:36;;;;;;;6.07;3.70;;;;;;;;;;6270404;28;20190;-69
2023/07/20 03:54:38;;;;;;;4.37;3.97;;;;;;;;;;6253449;28;20185;-68
2023/07/20 03:57:39;;;;;;;5.77;3.63;;;;;;;;;;6261181;28;20201;-69
2023/07/20 04:00:40;;;;;;;4.33;3.50;;;;;;;;;;6259960;28;20193;-68
2023/07/20 04:03:42;;;;;;;4.20;3.80;;;;;;;;;;6250001;28;20248;-69
2023/07/20 04:06:46;;;;;;;5.37;4.00;;;;;;;;;;6249651;28;20191;-68
2023/07/20 04:09:47;;;;;;;4.40;3.63;;;;;;;;;;6278764;28;20202;-69
2023/07/20 04:12:48;;;;;;;4.87;3.80;;;;;;;;;;6246773;28;20202;-69
2023/07/20 04:15:49;;;;;;;4.60;3.93;;;;;;;;;;6244358;28;20194;-68
2023/07/20 04:18:50;;;;;;;6.30;3.80;;;;;;;;;;6253042;28;20220;-68
2023/07/20 04:21:51;;;;;;;4.30;3.87;;;;;;;;;;6266808;28;20197;-69
2023/07/20 04:24:52;;;;;;;5.23;3.33;;;;;;;;;;6253441;28;20214;-68
2023/07/20 04:27:53;;;;;;;4.50;4.10;;;;;;;;;;6249543;28;20299;-69
2023/07/20 04:30:54;;;;;;;4.43;3.60;;;;;;;;;;6273357;28;20181;-69
2023/07/20 04:33:55;;;;;;;6.27;3.77;;;;;;;;;;6243396;28;20252;-69
2023/07/20 04:36:56;;;;;;;6.37;4.40;;;;;;;;;;6256969;28;20193;-69
2023/07/20 04:39:57;;;;;;;6.00;3.77;;;;;;;;;;6239363;28;20194;-66
2023/07/20 04:42:58;;;;;;;5.03;3.93;;;;;;;;;;6245019;28;20212;-67
2023/07/20 04:45:59;;;;;;;6.07;3.63;;;;;;;;;;6244774;28;20189;-67
2023/07/20 04:49:01;;;;;;;4.20;3.73;;;;;;;;;;6239651;28;20217;-67
2023/07/20 04:52:02;;;;;;;4.20;3.50;;;;;;;;;;6236368;28;20194;-67
2023/07/20 04:55:04;;;;;;;4.63;3.53;;;;;;;;;;6253113;28;20193;-67
2023/07/20 04:58:06;;;;;;;4.23;3.70;;;;;;;;;;6244743;28;20244;-67
2023/07/20 05:01:07;;;;;;;4.83;3.77;;;;;;;;;;6251350;28;20232;-67
2023/07/20 05:04:08;;;;;;;5.23;4.03;;;;;;;;;;6277129;28;20221;-67
2023/07/20 05:07:09;;;;;;;4.40;4.00;;;;;;;;;;6234438;28;20186;-67
2023/07/20 05:10:10;;;;;;;5.67;3.50;;;;;;;;;;6251563;28;20193;-67
2023/07/20 05:13:11;;;;;;;7.67;4.33;;;;;;;;;;6269322;28;20193;-67
2023/07/20 05:16:12;;;;;;;6.27;4.20;;;;;;;;;;6239755;28;20196;-66
2023/07/20 05:19:13;;;;;;;4.73;4.23;;;;;;;;;;6253624;28;20197;-69
2023/07/20 05:22:14;;;;;;;4.30;3.90;;;;;;;;;;6262146;28;20271;-66
2023/07/20 05:25:18;;;;;;;5.00;4.10;;;;;;;;;;6247343;28;20193;-69
2023/07/20 05:28:19;;;;;;;4.80;4.30;;;;;;;;;;6250494;28;20233;-68
2023/07/20 05:31:20;;;;;;;4.80;4.10;;;;;;;;;;6252561;28;20194;-68
2023/07/20 05:34:21;;;;;;;6.23;4.10;;;;;;;;;;6242989;28;20196;-67
2023/07/20 05:37:22;;;;;;;5.90;4.00;;;;;;;;;;6247700;28;20280;-69
2023/07/20 05:40:23;;;;;;;9.97;4.27;;;;;;;;;;6267649;28;20242;-69
2023/07/20 05:43:24;;;;;;;4.23;3.63;;;;;;;;;;6242076;28;20227;-69
2023/07/20 05:46:25;;;;;;;5.43;4.10;;;;;;;;;;6238488;28;20260;-70
2023/07/20 05:49:26;;;;;;;5.20;4.03;;;;;;;;;;6239545;28;20213;-73
2023/07/20 05:52:27;;;;;;;4.63;3.73;;;;;;;;;;6249451;28;20193;-69
2023/07/20 05:55:28;;;;;;;4.63;3.43;;;;;;;;;;6248726;28;20231;-69
2023/07/20 05:58:29;;;;;;;4.30;3.83;;;;;;;;;;6249311;28;20186;-71
2023/07/20 06:01:30;;;;;;;5.03;4.33;;;;;;;;;;6249333;28;20239;-69
2023/07/20 06:04:31;;;;;;;4.50;4.00;;;;;;;;;;6252830;28;20249;-70
2023/07/20 06:07:32;;;;;;;4.03;3.63;;;;;;;;;;6243495;28;20225;-70
2023/07/20 06:10:33;;;;;;;4.40;4.00;;;;;;;;;;6241879;28;20194;-70
2023/07/20 06:13:34;;;;;;;4.93;3.83;;;;;;;;;;6248124;28;20189;-70
2023/07/20 06:16:35;;;;;;;4.40;4.00;;;;;;;;;;6231654;28;20193;-70
2023/07/20 06:19:37;;;;;;;5.83;4.27;;;;;;;;;;6280112;28;20255;-69
2023/07/20 06:22:38;;;;;;;4.20;3.80;;;;;;;;;;6247521;28;20233;-70
2023/07/20 06:25:39;;;;;;;4.67;4.17;;;;;;;;;;6250446;28;20199;-70
2023/07/20 06:28:40;;;;;;;6.07;4.30;;;;;;;;;;6251253;28;20292;-70
2023/07/20 06:31:41;;;;;;;8.37;4.37;;;;;;;;;;6259014;28;20193;-70
2023/07/20 06:34:42;;;;;;;5.60;4.27;;;;;;;;;;6239266;28;20217;-70
2023/07/20 06:37:43;;;;;;;4.20;3.80;;;;;;;;;;6243152;28;20202;-70
2023/07/20 06:40:44;;;;;;;4.23;3.93;;;;;;;;;;6242721;28;20244;-70
2023/07/20 06:43:45;;;;;;;4.77;3.57;;;;;;;;;;6248712;28;20217;-70
2023/07/20 06:46:46;;;;;;;6.60;4.33;;;;;;;;;;6240524;28;20188;-70
2023/07/20 06:49:47;;;;;;;4.70;4.20;;;;;;;;;;6261927;28;20245;-70
2023/07/20 06:52:49;;;;;;;4.97;4.30;;;;;;;;;;6264889;28;20189;-70
2023/07/20 06:55:50;;;;;;;4.87;4.10;;;;;;;;;;6248515;28;20197;-70
2023/07/20 06:58:51;;;;;;;3.80;3.50;;;;;;;;;;6242185;28;20198;-70
2023/07/20 07:01:52;;;;;;;8.27;5.37;;;;;;;;;;6258457;28;20198;-68
2023/07/20 07:04:53;;;;;;;6.83;4.37;;;;;;;;;;6255391;28;20197;-70
2023/07/20 07:07:54;;;;;;;6.23;4.53;;;;;;;;;;6250388;28;20195;-67
2023/07/20 07:10:55;;;;;;;7.50;4.00;;;;;;;;;;6253901;28;20219;-69
2023/07/20 07:13:56;;;;;;;5.27;4.20;;;;;;;;;;6251180;28;20198;-70
2023/07/20 07:16:57;;;;;;;4.60;4.20;;;;;;;;;;6250698;28;20206;-70
2023/07/20 07:19:58;;;;;;;6.23;4.43;;;;;;;;;;6246981;28;20201;-70
2023/07/20 07:23:00;;;;;;;9.60;4.63;;;;;;;;;;6260346;28;20249;-70
2023/07/20 07:26:01;;;;;;;7.37;5.17;;;;;;;;;;6272630;28;20190;-69
2023/07/20 07:29:02;;;;;;;5.70;4.33;;;;;;;;;;6238865;28;20236;-70
2023/07/20 07:32:03;;;;;;;5.63;4.57;;;;;;;;;;6256344;28;20205;-69
2023/07/20 07:35:05;;;;;;;7.77;4.70;;;;;;;;;;6246940;28;20229;-70
2023/07/20 07:38:06;;;;;;;5.47;4.50;;;;;;;;;;6249727;28;20259;-70
2023/07/20 07:41:07;;;;;;;5.57;4.80;;;;;;;;;;6248423;28;20214;-70
2023/07/20 07:44:08;;;;;;;6.40;4.80;;;;;;;;;;6248488;28;20303;-70
2023/07/20 07:47:09;;;;;;;7.70;5.00;;;;;;;;;;6240192;28;20232;-70
2023/07/20 07:50:11;;;;;;;7.57;4.63;;;;;;;;;;6248465;28;20213;-70
2023/07/20 07:53:12;;;;;;;6.17;4.33;;;;;;;;;;6259899;28;20189;-70
2023/07/20 07:56:13;;;;;;;8.80;4.53;;;;;;;;;;6251187;28;20204;-70
2023/07/20 07:59:14;;;;;;;6.67;5.13;;;;;;;;;;6242488;28;20190;-70
2023/07/20 08:02:15;;;;;;;4.80;4.40;;;;;;;;;;6235535;28;20312;-70
2023/07/20 08:05:17;;;;;;;4.57;4.17;;;;;;;;;;6235095;28;20195;-71
2023/07/20 08:08:18;;;;;;;4.83;4.00;;;;;;;;;;6255521;28;20284;-69
2023/07/20 08:11:19;;;;;;;4.33;3.93;;;;;;;;;;6264958;28;20185;-69
2023/07/20 08:14:20;;;;;;;7.80;4.60;;;;;;;;;;6251873;28;20265;-71
2023/07/20 08:17:21;;;;;;;5.20;4.03;;;;;;;;;;6251841;28;20204;-70
2023/07/20 08:20:26;;;;;;;4.63;4.23;;;;;;;;;;6243160;28;20198;-67
2023/07/20 08:23:27;;;;;;;6.43;4.43;;;;;;;;;;6238323;28;20214;-69
2023/07/20 08:26:28;;;;;;;4.77;4.27;;;;;;;;;;6270468;28;20193;-69
2023/07/20 08:29:29;;;;;;;7.00;3.93;;;;;;;;;;6255259;28;20241;-69
2023/07/20 08:32:30;;;;;;;7.73;3.97;;;;;;;;;;6246515;28;20194;-69
2023/07/20 08:35:31;;;;;;;6.03;3.90;;;;;;;;;;6275326;28;20201;-69
2023/07/20 08:38:32;;;;;;;4.83;3.27;;;;;;;;;;6246298;28;20194;-69
2023/07/20 08:41:33;;;;;;;4.03;3.40;;;;;;;;;;6266398;28;20264;-69
2023/07/20 08:44:36;;;;;;;3.40;3.10;;;;;;;;;;6249680;28;20217;-69
2023/07/20 08:47:37;;;;;;;3.93;3.57;;;;;;;;;;6259966;28;20190;-69
2023/07/20 08:50:39;;;;;;;4.70;3.10;;;;;;;;;;6259834;28;20221;-69
2023/07/20 08:53:40;;;;;;;4.90;3.53;;;;;;;;;;6247910;28;20202;-69
2023/07/20 08:56:41;;;;;;;3.60;2.97;;;;;;;;;;6237418;28;20225;-69
2023/07/20 08:59:43;;;;;;;3.50;3.20;;;;;;;;;;6264472;28;20189;-69
2023/07/20 09:02:45;;;;;;;3.63;2.97;;;;;;;;;;6246310;28;20203;-69
2023/07/20 09:05:46;;;;;;;3.17;2.70;;;;;;;;;;6260528;28;20191;-69
2023/07/20 09:08:47;;;;;;;2.87;2.63;;;;;;;;;;6264413;28;20194;-69
2023/07/20 09:11:50;;;;;;;5.27;3.00;;;;;;;;;;6248097;28;20208;-68
2023/07/20 09:14:51;;;;;;;3.30;3.00;;;;;;;;;;6246738;28;20187;-69
2023/07/20 09:17:53;;;;;;;3.70;3.40;;;;;;;;;;6251596;28;20193;-68
2023/07/20 09:20:59;;;;;;;4.40;3.23;;;;;;;;;;6256923;28;20182;-69
2023/07/20 09:24:00;;;;;;;3.97;3.47;;;;;;;;;;6261593;28;20225;-69
2023/07/20 09:27:05;;;;;;;4.57;3.43;;;;;;;;;;6242947;28;20193;-69
2023/07/20 09:30:11;;;;;;;4.00;3.03;;;;;;;;;;6249169;28;20234;-69
2023/07/20 09:33:19;;;;;;;3.30;3.00;;;;;;;;;;6237024;28;20253;-69
2023/07/20 09:36:20;;;;;;;3.10;2.80;;;;;;;;;;6262542;28;20206;-69
2023/07/20 09:39:21;;;;;;;6.90;3.50;;;;;;;;;;6255019;28;20196;-68
2023/07/20 09:42:24;;;;;;;3.20;2.90;;;;;;;;;;6252608;28;20284;-67
2023/07/20 09:45:36;;;;;;;4.60;3.63;;;;;;;;;;6254043;28;20251;-67
2023/07/20 09:48:37;;;;;;;3.27;2.97;;;;;;;;;;6261169;28;20182;-67
2023/07/20 09:51:39;;;;;;;3.90;2.80;;;;;;;;;;6252625;28;20282;-67
2023/07/20 09:54:40;;;;;;;4.33;3.23;;;;;;;;;;6249588;28;20206;-68
2023/07/20 09:57:41;;;;;;;3.50;3.20;;;;;;;;;;6235067;28;20201;-68
2023/07/20 10:00:45;;;;;;;5.37;3.43;;;22.80;99.90;;;;;;6243295;28;20243;-68
2023/07/20 10:03:46;;;;;;;4.27;3.23;;;23.90;62.20;;;;;;6248278;28;20241;-68
2023/07/20 10:06:49;;;;;;;6.37;3.20;;;24.00;64.20;;;;;;6274319;28;20197;-68
2023/07/20 10:09:52;;;;;;;4.10;3.10;;;24.00;61.40;;;;;;6263889;28;20205;-68
2023/07/20 10:12:53;;;;;;;3.90;3.47;;;24.00;61.90;;;;;;6249671;28;20202;-68
2023/07/20 10:16:03;;;;;;;4.03;3.40;;;24.10;63.70;;;;;;6246833;28;20225;-68
2023/07/20 10:19:10;;;;;;;4.80;3.80;;;24.20;62.90;;;;;;6260866;28;20245;-68
2023/07/20 10:22:15;;;;;;;6.50;4.57;;;24.20;61.80;;;;;;6254569;28;20183;-68
2023/07/20 10:25:19;;;;;;;7.37;4.27;;;24.20;60.00;;;;;;6257665;28;20270;-68
2023/07/20 10:28:23;;;;;;;5.63;4.00;;;24.20;62.20;;;;;;6237071;28;20295;-68
2023/07/20 10:31:24;;;;;;;5.30;4.80;;;;;;;;;;6252515;28;20198;-68
2023/07/20 10:34:25;;;;;;;6.03;4.67;;;;;;;;;;6260971;28;20182;-68
2023/07/20 10:38:05;;;;;;;7.43;5.27;;;;;;;;;;6259441;28;20205;-68
2023/07/20 10:41:16;;;;;;;8.97;6.30;;;;;;;;;;6231040;28;20202;-68
2023/07/20 10:44:20;;;;;;;6.60;5.90;;;;;;;;;;6234948;28;20214;-68
2023/07/20 10:47:21;;;;;;;7.20;5.97;;;;;;;;;;6262952;28;20201;-68
2023/07/20 10:50:22;;;;;;;6.73;5.97;;;;;;;;;;6252234;28;20581;-67
2023/07/20 10:53:23;;;;;;;5.93;5.33;;;;;;;;;;6259112;28;20216;-67
2023/07/20 10:56:29;;;;;;;5.57;5.07;;;;;;;;;;6254308;28;20204;-67
2023/07/20 10:59:30;;;;;;;6.37;4.83;;;;;;;;;;6252376;28;20197;-67
2023/07/20 11:02:41;;;;;;;5.63;5.10;;;;;;;;;;6259407;28;20218;-67
2023/07/20 11:05:43;;;;;;;6.47;5.33;;;;;;;;;;6263465;28;20189;-67
2023/07/20 11:08:44;;;;;;;5.10;4.57;;;;;;;;;;6260362;28;20203;-67
2023/07/20 11:11:48;;;;;;;6.47;5.10;;;;;;;;;;6271414;28;20182;-67
2023/07/20 11:14:57;;;;;;;4.97;4.47;;;;;;;;;;6285645;28;20204;-66
2023/07/20 11:18:12;;;;;;;8.63;5.17;;;;;;;;;;6264748;28;20250;-65
2023/07/20 11:21:13;;;;;;;3.87;3.57;;;;;;;;;;6254559;28;20190;-66
2023/07/20 11:24:14;;;;;;;5.03;4.00;;;;;;;;;;6249461;28;20223;-66
2023/07/20 11:27:15;;;;;;;6.47;4.80;;;;;;;;;;6255584;28;20190;-66
2023/07/20 11:30:17;;;;;;;5.30;3.50;;;;;;;;;;6254573;28;20230;-66
2023/07/20 11:33:18;;;;;;;7.47;3.93;;;;;;;;;;6254479;28;20225;-66
2023/07/20 11:36:19;;;;;;;4.63;3.80;;;;;;;;;;6243804;28;20231;-66
2023/07/20 11:39:22;;;;;;;5.03;3.87;;;;;;;;;;6245852;28;20221;-66
2023/07/20 11:42:23;;;;;;;4.73;3.33;;;;;;;;;;6265092;28;20210;-66
2023/07/20 11:45:24;;;;;;;5.30;3.47;;;;;;;;;;6236290;28;20190;-66
2023/07/20 11:48:25;;;;;;;5.10;3.77;;;;;;;;;;6247764;28;20200;-67
2023/07/20 11:51:29;;;;;;;5.77;3.90;;;;;;;;;;6257487;28;20271;-67
2023/07/20 11:54:31;;;;;;;4.50;3.80;;;;;;;;;;6272534;28;20228;-66
2023/07/20 11:57:32;;;;;;;7.37;3.53;;;;;;;;;;6256137;28;20200;-67
2023/07/20 12:00:34;;;;;;;4.20;3.80;;;;;;;;;;6243307;28;20194;-68
2023/07/20 12:03:35;;;;;;;4.83;3.70;;;;;;;;;;6258181;28;20209;-68
2023/07/20 12:06:37;;;;;;;3.27;2.93;;;;;;;;;;6253941;28;20185;-68
2023/07/20 12:09:38;;;;;;;3.20;2.83;;;;;;;;;;6252933;28;20190;-68
2023/07/20 12:12:40;;;;;;;4.60;3.17;;;;;;;;;;6281347;28;20198;-68
2023/07/20 12:15:42;;;;;;;3.37;3.07;;;;;;;;;;6278477;28;20239;-68
2023/07/20 12:18:43;;;;;;;3.83;3.30;;;;;;;;;;6249442;28;20194;-68
2023/07/20 12:21:45;;;;;;;4.33;3.10;;;;;;;;;;6259660;28;20290;-68
2023/07/20 12:24:46;;;;;;;5.40;2.77;;;;;;;;;;6270438;28;20240;-68
2023/07/20 12:27:48;;;;;;;5.37;2.80;;;;;;;;;;6249766;28;20342;-68
2023/07/20 12:30:56;;;;;;;3.33;3.03;;;;;;;;;;6257628;28;20208;-68
2023/07/20 12:33:57;;;;;;;3.73;2.93;;;;;;;;;;6256609;28;20194;-68
2023/07/20 12:36:58;;;;;;;3.73;3.33;;;;;;;;;;6259093;28;20190;-68
2023/07/20 12:40:00;;;;;;;4.67;3.23;;;;;;;;;;6246984;28;20202;-68
2023/07/20 12:43:01;;;;;;;3.13;2.83;;;;;;;;;;6255730;28;20241;-69
2023/07/20 12:46:02;;;;;;;4.57;3.37;;;;;;;;;;6249721;28;20226;-68
2023/07/20 12:49:03;;;;;;;4.93;3.13;;;;;;;;;;6271723;28;20293;-68
2023/07/20 12:52:04;;;;;;;3.60;3.17;;;;;;;;;;6272438;28;20221;-68
2023/07/20 12:55:06;;;;;;;4.63;3.53;;;;;;;;;;6242181;28;20196;-68
2023/07/20 12:58:07;;;;;;;5.80;3.93;;;;;;;;;;6256129;28;20193;-68
2023/07/20 13:01:08;;;;;;;4.37;3.67;;;;;;;;;;6257165;28;20201;-68
2023/07/20 13:04:10;;;;;;;6.63;4.30;;;;;;;;;;6240610;28;20251;-68
2023/07/20 13:07:14;;;;;;;5.13;4.07;;;;;;;;;;6251212;28;20247;-68
2023/07/20 13:10:15;;;;;;;6.10;4.27;;;;;;;;;;6254537;28;20187;-68
2023/07/20 13:13:16;;;;;;;5.43;4.43;;;;;;;;;;6244352;28;20194;-68
2023/07/20 13:16:17;;;;;;;5.07;4.17;;;;;;;;;;6254449;28;20195;-69
2023/07/20 13:19:18;;;;;;;7.57;4.20;;;;;;;;;;6233679;28;20278;-70
2023/07/20 13:22:19;;;;;;;4.87;4.10;;;;;;;;;;6265110;28;20202;-70
2023/07/20 13:25:20;;;;;;;5.77;4.37;;;;;;;;;;6249315;28;20182;-70
2023/07/20 13:28:21;;;;;;;5.73;4.13;;;;;;;;;;6270006;28;20285;-70
2023/07/20 13:31:22;;;;;;;5.00;4.10;;;;;;;;;;6253215;28;20215;-69
2023/07/20 13:34:23;;;;;;;4.47;3.73;;;;;;;;;;6249404;28;20198;-69
2023/07/20 13:37:25;;;;;;;5.50;4.30;;;;;;;;;;6253617;28;20196;-69
2023/07/20 13:40:26;;;;;;;5.33;3.90;;;;;;;;;;6254998;28;20292;-69
2023/07/20 13:43:27;;;;;;;3.70;3.40;;;;;;;;;;6245731;28;20233;-69
2023/07/20 13:46:28;;;;;;;6.57;3.63;;;;;;;;;;6246708;28;20199;-69
2023/07/20 13:49:29;;;;;;;3.77;3.37;;;;;;;;;;6236516;28;20302;-70
2023/07/20 13:52:30;;;;;;;4.93;3.07;;;;;;;;;;6260108;28;20197;-70
2023/07/20 13:55:33;;;;;;;3.87;3.00;;;;;;;;;;6242222;28;20204;-69
2023/07/20 13:58:34;;;;;;;4.10;2.70;;;;;;;;;;6236578;28;20191;-69
2023/07/20 14:01:36;;;;;;;4.43;3.33;;;;;;;;;;6243705;28;20192;-69
2023/07/20 14:04:37;;;;;;;4.17;3.47;;;;;;;;;;6235632;28;20229;-69
2023/07/20 14:07:38;;;;;;;3.00;2.77;;;;;;;;;;6245829;28;20224;-69
2023/07/20 14:10:39;;;;;;;3.80;3.30;;;;;;;;;;6250222;28;20196;-69
2023/07/20 14:13:40;;;;;;;3.57;3.20;;;;;;;;;;6249626;28;20233;-69
2023/07/20 14:16:41;;;;;;;4.53;3.60;;;;;;;;;;6273187;28;20185;-69
2023/07/20 14:19:42;;;;;;;4.13;3.70;;;;;;;;;;6245226;28;20210;-69
2023/07/20 14:22:44;;;;;;;4.40;3.27;;;25.30;82.10;;;;;;6259269;28;20212;-71
2023/07/20 14:25:44;;;;;;;3.80;3.27;;;25.20;83.00;;;;;;6260517;28;20194;-70
2023/07/20 14:28:46;;;;;;;3.57;3.27;;;;;;;;;;6249677;28;20246;-71
2023/07/20 14:31:50;;;;;;;3.47;2.93;;;;;;;;;;6248654;28;20190;-71
2023/07/20 14:34:51;;;;;;;3.60;3.30;;;;;;;;;;6259050;28;20248;-71
2023/07/20 14:37:52;;;;;;;7.53;3.73;;;;;;;;;;6248272;28;20202;-71
2023/07/20 14:40:54;;;;;;;4.77;3.33;;;;;;;;;;6264042;28;20198;-71
2023/07/20 14:43:55;;;;;;;6.03;3.73;;;;;;;;;;6258650;28;20213;-71
2023/07/20 14:46:56;;;;;;;4.33;3.80;;;;;;;;;;6248384;28;20259;-70
2023/07/20 14:49:57;;;;;;;3.83;3.43;;;;;;;;;;6241100;28;20187;-70
2023/07/20 14:52:58;;;;;;;4.80;3.70;;;;;;;;;;6255267;28;20234;-70
2023/07/20 14:56:02;;;;;;;5.13;3.43;;;;;;;;;;6248862;28;20232;-71
2023/07/20 14:59:05;;;;;;;4.47;3.50;;;;;;;;;;6252240;28;20182;-71
2023/07/20 15:02:06;;;;;;;4.40;3.37;;;;;;;;;;6248953;28;20195;-71
2023/07/20 15:05:08;;;;;;;8.87;4.13;;;;;;;;;;6272115;28;20194;-71
2023/07/20 15:08:09;;;;;;;4.60;3.57;;;;;;;;;;6251189;28;20277;-71
2023/07/20 15:11:10;;;;;;;4.27;3.67;;;;;;;;;;6241454;28;20199;-70
2023/07/20 15:14:11;;;;;;;4.20;3.80;;;;;;;;;;6257818;28;20285;-70
2023/07/20 15:17:12;;;;;;;3.93;3.63;;;;;;;;;;6271893;28;20265;-71
2023/07/20 15:20:14;;;;;;;5.80;3.67;;;;;;;;;;6288940;28;20223;-71
2023/07/20 15:23:15;;;;;;;4.27;3.87;;;;;;;;;;6264478;28;20206;-71
2023/07/20 15:26:16;;;;;;;5.87;3.73;;;;;;;;;;6264979;28;20181;-71
2023/07/20 15:29:17;;;;;;;4.70;3.77;;;;;;;;;;6277596;28;20238;-71
2023/07/20 15:32:18;;;;;;;4.40;3.70;;;;;;;;;;6253387;28;20215;-71
2023/07/20 15:35:20;;;;;;;4.87;3.03;;;;;;;;;;6261444;28;20190;-70
2023/07/20 15:38:21;;;;;;;3.70;3.40;;;;;;;;;;6244656;28;20215;-71
2023/07/20 15:41:22;;;;;;;5.97;3.70;;;;;;;;;;6251342;28;20196;-70
2023/07/20 15:44:23;;;;;;;5.00;3.80;;;;;;;;;;6249649;28;20218;-70
2023/07/20 15:47:24;;;;;;;5.43;4.00;;;;;;;;;;6264555;28;20190;-70
2023/07/20 15:50:25;;;;;;;5.20;4.70;;;;;;;;;;6244594;28;20195;-70
2023/07/20 15:53:26;;;;;;;6.03;4.07;;;;;;;;;;6246023;28;20233;-70
2023/07/20 15:56:27;;;;;;;6.33;3.87;;;;;;;;;;6244811;28;20241;-70
2023/07/20 15:59:28;;;;;;;5.53;4.20;;;;;;;;;;6234665;28;20198;-70
2023/07/20 16:02:29;;;;;;;4.67;3.53;;;;;;;;;;6243988;28;20320;-71
2023/07/20 16:05:30;;;;;;;5.93;4.03;;;;;;;;;;6279213;28;20210;-71
2023/07/20 16:08:31;;;;;;;4.73;4.23;;;;;;;;;;6250992;28;20197;-70
2023/07/20 16:11:36;;;;;;;4.27;3.83;;;;;;;;;;6251616;28;20190;-70
2023/07/20 16:14:37;;;;;;;4.40;3.80;;;;;;;;;;6254349;28;20303;-70
2023/07/20 16:17:38;;;;;;;5.47;4.10;;;;;;;;;;6254112;28;20186;-70
2023/07/20 16:20:39;;;;;;;4.70;3.67;;;;;;;;;;6272494;28;20666;-70
2023/07/20 16:23:40;;;;;;;4.73;3.70;;;;;;;;;;6248228;28;20215;-71
2023/07/20 16:26:43;;;;;;;4.30;3.77;;;;;;;;;;6285822;28;20189;-71
2023/07/20 16:29:44;;;;;;;4.60;4.20;;;;;;;;;;6247200;28;20292;-70
2023/07/20 16:32:45;;;;;;;4.03;3.60;;;;;;;;;;6238934;28;20195;-72
2023/07/20 16:35:46;;;;;;;5.33;3.93;;;;;;;;;;6251210;28;20190;-72
2023/07/20 16:38:47;;;;;;;6.23;4.20;;;;;;;;;;6265927;28;20194;-71
2023/07/20 16:41:48;;;;;;;5.27;4.17;;;;;;;;;;6262861;28;20197;-71
2023/07/20 16:44:50;;;;;;;5.00;4.50;;;;;;;;;;6250176;28;20217;-71
2023/07/20 16:47:51;;;;;;;7.47;4.53;;;;;;;;;;6270090;28;20269;-71
2023/07/20 16:50:53;;;;;;;6.03;4.13;;;;;;;;;;6269624;28;20194;-69
2023/07/20 16:53:54;;;;;;;4.40;4.00;;;;;;;;;;6245335;28;20245;-71
2023/07/20 16:56:55;;;;;;;4.57;3.93;;;;;;;;;;6239120;28;20198;-73
2023/07/20 16:59:56;;;;;;;5.07;3.90;;;;;;;;;;6237143;28;20190;-71
2023/07/20 17:02:57;;;;;;;5.30;3.97;;;;;;;;;;6298067;28;20206;-71
2023/07/20 17:05:59;;;;;;;4.37;3.97;;;;;;;;;;6245090;28;20285;-71
2023/07/20 17:09:01;;;;;;;6.53;4.67;;;;;;;;;;6265248;28;20401;-71
2023/07/20 17:12:02;;;;;;;6.13;4.90;;;;;;;;;;6244247;28;20207;-71
2023/07/20 17:15:03;;;;;;;4.43;3.87;;;;;;;;;;6273335;28;20197;-71
2023/07/20 17:18:04;;;;;;;5.87;4.40;;;;;;;;;;6245303;28;20197;-71
2023/07/20 17:21:05;;;;;;;6.60;5.20;;;;;;;;;;6277596;28;20348;-71
2023/07/20 17:24:08;;;;;;;5.27;4.77;;;;;;;;;;6270386;28;20218;-71
2023/07/20 17:27:11;;;;;;;5.07;4.53;;;;;;;;;;6236391;28;20195;-70
2023/07/20 17:30:12;;;;;;;5.20;4.63;;;;;;;;;;6248373;28;20295;-67
2023/07/20 17:33:15;;;;;;;6.83;4.47;;;;;;;;;;6247597;28;20194;-70
2023/07/20 17:36:17;;;;;;;7.97;4.70;;;;;;;;;;6242949;28;20228;-67
2023/07/20 17:39:18;;;;;;;7.40;4.97;;;;;;;;;;6247666;28;20190;-66
2023/07/20 17:42:19;;;;;;;6.97;4.60;;;;;;;;;;6251089;28;20201;-67
2023/07/20 17:45:22;;;;;;;5.33;4.50;;;;;;;;;;6250181;28;20197;-66
2023/07/20 17:48:23;;;;;;;7.03;4.90;;;;;;;;;;6260237;28;20236;-66
2023/07/20 17:51:24;;;;;;;5.80;5.00;;;;;;;;;;6247480;28;20218;-67
2023/07/20 17:54:25;;;;;;;9.73;5.23;;;;;;;;;;6255593;28;20201;-66
2023/07/20 17:57:27;;;;;;;6.00;5.13;;;;;;;;;;6245627;28;20198;-68
2023/07/20 18:00:28;;;;;;;6.10;4.80;;;;;;;;;;6278492;28;20190;-70
2023/07/20 18:03:29;;;;;;;5.10;4.47;;;;;;;;;;6233653;28;20310;-70